Time;durP1;ratioP1;P1;durP2;ratioP2;P2;SDS_P1;SDS_P2;PMS_P1;PMS_P2;Temp;Humidity;BMP_temperature;BMP_pressure;BME280_temperature;BME280_humidity;BME280_pressure;Samples;Min_cycle;Max_cycle;Signal;HPM_P1;HPM_P2
2022/06/21 00:00:23;;;;;;;17.60;17.00;;;17.60;38.20;;;;;;5050556;28;20411;-79
2022/06/21 00:02:54;;;;;;;17.20;16.60;;;17.60;38.20;;;;;;5050677;28;20414;-79
2022/06/21 00:05:28;;;;;;;17.00;16.50;;;17.60;38.30;;;;;;5050763;28;20437;-79
2022/06/21 00:07:56;;;;;;;16.60;16.00;;;17.60;38.20;;;;;;5052465;28;20764;-79
2022/06/21 00:10:22;;;;;;;16.70;16.20;;;17.60;38.20;;;;;;5050397;28;20415;-78
2022/06/21 00:12:48;;;;;;;17.47;16.87;;;17.60;38.20;;;;;;5050564;28;20531;-79
2022/06/21 00:15:14;;;;;;;17.70;17.10;;;17.60;38.20;;;;;;5051612;28;20811;-79
2022/06/21 00:17:45;;;;;;;17.07;16.37;;;17.60;38.20;;;;;;5054372;28;20172;-79
2022/06/21 00:20:24;;;;;;;17.13;16.53;;;17.60;38.20;;;;;;5053956;28;20464;-79
2022/06/21 00:22:50;;;;;;;17.30;16.70;;;17.50;38.10;;;;;;5054340;28;20475;-79
2022/06/21 00:25:25;;;;;;;17.40;16.80;;;17.50;38.10;;;;;;5054003;28;20828;-79
2022/06/21 00:27:56;;;;;;;17.47;16.80;;;17.50;38.10;;;;;;5054156;28;20175;-78
2022/06/21 00:30:23;;;;;;;16.37;15.87;;;17.40;38.00;;;;;;5053817;28;20517;-79
2022/06/21 00:32:52;;;;;;;17.20;16.60;;;17.40;38.60;;;;;;5052813;28;20428;-79
2022/06/21 00:35:20;;;;;;;17.70;17.00;;;17.40;38.00;;;;;;5053683;28;20207;-79
2022/06/21 00:37:47;;;;;;;16.57;15.97;;;17.30;37.90;;;;;;5055070;28;20926;-78
2022/06/21 00:40:20;;;;;;;16.70;16.13;;;17.30;38.50;;;;;;5053812;28;20767;-79
2022/06/21 00:42:50;;;;;;;16.83;16.33;;;17.30;38.60;;;;;;5054238;28;20942;-78
2022/06/21 00:45:27;;;;;;;16.97;16.47;;;17.30;37.90;;;;;;5054171;28;20854;-78
2022/06/21 00:47:58;;;;;;;17.13;16.53;;;17.20;37.80;;;;;;5055450;28;20445;-79
2022/06/21 00:50:31;;;;;;;16.83;16.23;;;17.20;38.20;;;;;;5054026;28;20991;-79
2022/06/21 00:53:15;;;;;;;17.83;17.23;;;17.20;37.80;;;;;;5054081;28;20897;-79
2022/06/21 00:55:56;;;;;;;16.90;16.40;;;17.20;37.90;;;;;;5054289;28;20510;-79
2022/06/21 00:58:23;;;;;;;17.53;16.93;;;17.10;37.80;;;;;;5054621;28;20411;-79
2022/06/21 01:00:58;;;;;;;17.17;16.67;;;17.10;37.30;;;;;;5053601;28;20415;-79
2022/06/21 01:03:29;;;;;;;17.60;17.00;;;17.20;37.40;;;;;;5053410;28;20421;-79
2022/06/21 01:15:57;;;;;;;16.40;15.90;;;17.20;33.10;;;;;;5054361;28;20953;-79
2022/06/21 01:35:32;;;;;;;17.53;16.80;;;17.00;35.20;;;;;;5054349;28;20918;-79
2022/06/21 01:37:59;;;;;;;17.60;16.87;;;17.00;35.60;;;;;;5052974;28;20918;-79
2022/06/21 01:40:31;;;;;;;17.70;16.90;;;17.00;36.00;;;;;;5052630;28;20414;-78
2022/06/21 01:43:28;;;;;;;17.53;16.93;;;17.00;36.20;;;;;;5052826;28;20946;-77
2022/06/21 01:46:01;;;;;;;17.60;16.97;;;16.90;36.20;;;;;;5049791;28;20441;-77
2022/06/21 02:12:09;;;;;;;17.37;16.77;;;16.90;32.80;;;;;;5054918;28;20511;-79
2022/06/21 02:14:39;;;;;;;17.90;17.20;;;16.80;33.20;;;;;;5052991;28;20423;-79
2022/06/21 02:17:26;;;;;;;17.63;17.03;;;16.70;33.50;;;;;;5052371;28;20788;-78
2022/06/21 02:20:06;;;;;;;17.00;16.30;;;16.60;33.30;;;;;;5052314;28;20501;-79
2022/06/21 02:22:32;;;;;;;16.97;16.10;;;16.60;33.00;;;;;;5052131;28;20430;-79
2022/06/21 02:24:58;;;;;;;17.90;17.20;;;16.60;32.90;;;;;;5052050;28;20902;-79
2022/06/21 02:27:33;;;;;;;17.50;16.90;;;16.60;32.40;;;;;;5051790;28;20423;-79
2022/06/21 02:30:03;;;;;;;17.43;16.83;;;16.60;32.40;;;;;;5051548;28;20422;-79
2022/06/21 02:32:37;;;;;;;17.13;16.53;;;16.60;32.50;;;;;;5051393;28;20466;-79
2022/06/21 02:42:28;;;;;;;18.20;17.50;;;16.50;30.50;;;;;;5052779;28;20401;-78
2022/06/21 02:45:01;;;;;;;16.80;16.20;;;16.50;32.00;;;;;;5051451;28;20414;-79
2022/06/21 02:57:31;;;;;;;17.33;16.63;;;16.40;33.00;;;;;;5030420;28;20463;-78
2022/06/21 02:59:58;;;;;;;17.40;16.80;;;16.30;32.90;;;;;;5033939;28;20782;-78
2022/06/21 03:02:28;;;;;;;17.30;16.60;;;16.20;33.70;;;;;;5050970;28;20410;-78
2022/06/21 03:04:58;;;;;;;17.07;16.50;;;16.30;33.20;;;;;;5051297;28;20406;-79
2022/06/21 03:07:28;;;;;;;17.50;16.90;;;16.20;33.90;;;;;;5051476;28;20777;-78
2022/06/21 03:09:56;;;;;;;17.57;16.87;;;16.20;33.90;;;;;;5052173;28;20942;-79
2022/06/21 03:12:26;;;;;;;18.00;17.40;;;16.10;34.20;;;;;;5051926;28;20535;-79
2022/06/21 03:15:03;;;;;;;18.73;18.03;;;16.20;34.00;;;;;;5051354;28;20402;-78
2022/06/21 03:18:02;;;;;;;17.70;17.10;;;16.10;34.30;;;;;;5051121;28;20421;-78
2022/06/21 03:20:30;;;;;;;17.57;16.93;;;16.00;34.80;;;;;;5050496;28;20421;-78
2022/06/21 03:22:56;;;;;;;18.07;17.27;;;16.10;35.00;;;;;;5050849;28;20422;-78
2022/06/21 03:25:45;;;;;;;17.00;16.40;;;16.10;34.60;;;;;;5050819;28;20423;-78
2022/06/21 03:28:29;;;;;;;18.47;17.67;;;16.10;35.10;;;;;;5050798;28;20957;-77
2022/06/21 03:31:03;;;;;;;17.67;17.07;;;16.10;34.50;;;;;;5050589;28;20984;-78
2022/06/21 03:33:30;;;;;;;17.63;17.03;;;16.10;34.50;;;;;;5050544;28;20521;-79
2022/06/21 03:35:56;;;;;;;19.37;18.67;;;16.10;34.80;;;;;;5050807;28;20421;-78
2022/06/21 03:38:23;;;;;;;18.90;18.20;;;16.20;35.10;;;;;;5051292;28;20501;-76
2022/06/21 03:43:48;;;;;;;19.20;18.60;;;16.20;34.50;;;;;;5052216;28;20850;-76
2022/06/21 03:46:20;;;;;;;19.23;18.33;;;16.30;34.00;;;;;;5050456;28;20422;-77
2022/06/21 03:49:09;;;;;;;18.77;17.97;;;16.30;33.80;;;;;;5050471;28;20457;-78
2022/06/21 03:51:42;;;;;;;18.43;17.80;;;16.30;33.90;;;;;;5053627;28;20856;-77
2022/06/21 03:54:16;;;;;;;17.70;17.10;;;16.20;33.60;;;;;;5056169;28;20409;-77
2022/06/21 03:56:53;;;;;;;17.93;17.33;;;16.20;34.20;;;;;;5055826;28;20413;-77
2022/06/21 03:59:31;;;;;;;18.40;17.60;;;16.30;34.10;;;;;;5054130;28;20442;-76
2022/06/21 04:02:13;;;;;;;19.33;18.53;;;16.40;33.90;;;;;;5054975;28;20418;-78
2022/06/21 04:04:52;;;;;;;20.33;19.27;;;16.40;33.80;;;;;;5055037;28;20449;-77
2022/06/21 04:07:38;;;;;;;19.63;18.93;;;16.40;32.30;;;;;;5054571;28;20466;-76
2022/06/21 04:10:07;;;;;;;20.17;19.40;;;16.50;32.00;;;;;;5054250;28;20414;-78
2022/06/21 04:12:48;;;;;;;19.27;18.47;;;16.50;32.50;;;;;;5054386;28;20819;-74
2022/06/21 04:15:37;;;;;;;18.73;17.90;;;16.50;31.40;;;;;;5054228;28;20415;-76
2022/06/21 04:18:42;;;;;;;19.50;18.80;;;16.50;30.60;;;;;;5046215;28;20513;-77
2022/06/21 04:21:10;;;;;;;19.23;18.37;;;16.60;30.40;;;;;;5053665;28;20406;-77
2022/06/21 04:24:05;;;;;;;19.37;18.57;;;16.80;30.80;;;;;;5054294;28;20929;-77
2022/06/21 04:26:38;;;;;;;18.23;17.43;;;16.90;28.90;;;;;;5054559;28;20410;-78
2022/06/21 04:29:10;;;;;;;19.83;18.40;;;17.00;27.90;;;;;;5054494;28;20403;-78
2022/06/21 04:31:46;;;;;;;17.70;17.00;;;17.00;28.10;;;;;;5054114;28;20461;-78
2022/06/21 04:34:37;;;;;;;18.53;17.50;;;17.00;28.40;;;;;;5054074;28;20417;-78
2022/06/21 04:37:09;;;;;;;18.40;17.50;;;17.00;28.50;;;;;;5054861;28;20805;-80
2022/06/21 04:39:59;;;;;;;18.93;18.13;;;17.10;28.00;;;;;;5054547;28;20414;-78
2022/06/21 04:42:40;;;;;;;18.67;17.77;;;17.20;28.10;;;;;;5054957;28;20950;-77
2022/06/21 04:45:25;;;;;;;17.83;17.03;;;17.10;27.60;;;;;;5054854;28;20457;-79
2022/06/21 04:47:55;;;;;;;19.07;18.20;;;17.10;26.80;;;;;;5053998;28;20541;-78
2022/06/21 04:50:39;;;;;;;19.20;17.80;;;17.20;27.80;;;;;;5049273;23;20544;-78
2022/06/21 04:53:38;;;;;;;18.30;17.50;;;17.30;28.10;;;;;;5036630;28;20458;-77
2022/06/21 04:56:32;;;;;;;17.60;16.80;;;17.40;27.80;;;;;;5028866;28;20459;-77
2022/06/21 04:58:58;;;;;;;17.83;17.13;;;17.40;27.70;;;;;;5035308;28;20730;-81
2022/06/21 05:01:30;;;;;;;18.07;17.27;;;17.40;27.40;;;;;;5034143;28;20419;-80
2022/06/21 05:04:12;;;;;;;18.00;17.30;;;17.40;27.30;;;;;;5034830;28;20469;-80
2022/06/21 05:06:38;;;;;;;19.40;18.40;;;17.50;26.80;;;;;;5035036;28;20417;-80
2022/06/21 05:09:05;;;;;;;17.70;17.10;;;17.60;27.10;;;;;;5035979;28;20421;-80
2022/06/21 05:11:32;;;;;;;18.93;18.03;;;17.80;26.10;;;;;;5036624;28;20461;-81
2022/06/21 05:13:59;;;;;;;17.90;17.30;;;17.90;25.80;;;;;;5036633;28;20941;-80
2022/06/21 05:16:33;;;;;;;19.60;18.80;;;17.90;25.30;;;;;;5054482;28;20411;-80
2022/06/21 05:19:02;;;;;;;19.30;18.60;;;17.90;27.50;;;;;;5036867;28;20425;-81
2022/06/21 05:21:36;;;;;;;18.53;17.73;;;17.90;26.80;;;;;;5036470;28;20420;-80
2022/06/21 05:24:03;;;;;;;19.50;18.70;;;18.00;24.90;;;;;;5054501;28;20433;-80
2022/06/21 05:26:37;;;;;;;19.17;18.27;;;18.00;25.70;;;;;;5037363;28;20418;-80
2022/06/21 05:29:13;;;;;;;17.70;17.00;;;18.00;25.80;;;;;;5037126;28;20419;-80
2022/06/21 05:31:43;;;;;;;17.93;17.13;;;18.20;25.30;;;;;;5036141;28;20457;-78
2022/06/21 05:34:14;;;;;;;18.50;17.70;;;18.10;25.10;;;;;;5036136;28;20489;-77
2022/06/21 05:36:50;;;;;;;19.40;18.60;;;18.10;25.80;;;;;;5036070;28;20451;-80
2022/06/21 05:39:22;;;;;;;19.63;18.93;;;18.20;25.30;;;;;;5036782;28;20414;-85
2022/06/21 05:41:51;;;;;;;18.43;17.63;;;18.30;24.90;;;;;;5024170;28;20440;-82
2022/06/21 05:44:52;;;;;;;18.27;17.40;;;18.40;24.90;;;;;;5016506;28;20418;-82
2022/06/21 05:47:40;;;;;;;16.40;15.80;;;18.70;24.60;;;;;;5005977;28;20422;-82
2022/06/21 05:50:09;;;;;;;18.30;17.60;;;18.70;24.50;;;;;;5033492;28;20521;-81
2022/06/21 05:52:39;;;;;;;19.20;17.97;;;18.80;24.20;;;;;;5015937;28;20463;-80
2022/06/21 05:55:11;;;;;;;18.57;17.80;;;18.80;23.70;;;;;;5015737;28;20919;-80
2022/06/21 05:57:49;;;;;;;18.50;17.70;;;18.90;23.50;;;;;;5016372;28;20514;-80
2022/06/21 06:00:27;;;;;;;18.30;17.63;;;18.80;24.30;;;;;;5015658;28;20418;-81
2022/06/21 06:02:59;;;;;;;18.37;17.67;;;18.80;23.60;;;;;;5015888;28;20554;-80
2022/06/21 06:05:30;;;;;;;18.87;18.17;;;18.70;23.50;;;;;;5015840;28;20423;-80
2022/06/21 06:08:06;;;;;;;18.70;17.90;;;18.70;23.80;;;;;;5015767;28;20415;-80
2022/06/21 06:10:33;;;;;;;18.17;17.33;;;18.60;23.60;;;;;;5016004;28;20938;-81
2022/06/21 06:13:21;;;;;;;16.23;15.63;;;18.60;24.20;;;;;;5015488;28;20466;-80
2022/06/21 06:15:57;;;;;;;17.67;16.87;;;18.60;24.10;;;;;;5031316;28;20454;-81
2022/06/21 06:18:41;;;;;;;17.00;16.23;;;18.70;24.10;;;;;;5015459;28;20418;-81
2022/06/21 06:21:25;;;;;;;16.80;16.20;;;18.80;23.30;;;;;;5015429;28;20423;-80
2022/06/21 06:23:56;;;;;;;16.20;15.50;;;18.70;24.70;;;;;;5015391;28;20419;-81
2022/06/21 06:26:27;;;;;;;17.63;16.73;;;18.80;23.80;;;;;;5039505;28;20422;-81
2022/06/21 06:29:11;;;;;;;17.30;16.50;;;18.90;23.30;;;;;;5055264;28;20432;-81
2022/06/21 06:31:46;;;;;;;17.00;16.20;;;19.00;23.50;;;;;;5055813;28;20461;-81
2022/06/21 06:34:16;;;;;;;16.30;15.60;;;19.00;22.90;;;;;;5056243;28;20479;-80
2022/06/21 06:36:47;;;;;;;17.60;16.63;;;19.10;23.70;;;;;;5056589;28;20747;-80
2022/06/21 06:39:32;;;;;;;16.80;16.00;;;19.20;22.70;;;;;;5056293;28;20406;-81
2022/06/21 06:42:09;;;;;;;16.90;16.10;;;19.20;23.10;;;;;;5056192;28;20406;-81
2022/06/21 06:44:41;;;;;;;16.37;15.77;;;19.30;22.90;;;;;;5055385;28;20455;-80
2022/06/21 06:47:15;;;;;;;17.00;16.30;;;19.40;22.70;;;;;;5055641;28;20417;-80
2022/06/21 06:49:51;;;;;;;17.23;16.40;;;19.40;22.30;;;;;;5054595;28;20448;-81
2022/06/21 06:52:32;;;;;;;17.00;16.30;;;19.40;23.40;;;;;;5055530;28;20202;-81
2022/06/21 06:55:01;;;;;;;17.40;16.70;;;19.40;23.90;;;;;;5056289;28;20463;-81
2022/06/21 06:57:41;;;;;;;17.53;16.73;;;19.40;23.60;;;;;;5055326;28;20466;-81
2022/06/21 07:00:24;;;;;;;16.73;16.10;;;19.40;22.60;;;;;;5054772;28;20937;-80
2022/06/21 07:03:00;;;;;;;17.40;16.60;;;19.50;23.60;;;;;;5054587;28;20420;-80
2022/06/21 07:05:41;;;;;;;17.30;16.50;;;19.60;23.40;;;;;;5054564;28;20419;-80
2022/06/21 07:08:16;;;;;;;17.57;16.47;;;19.60;23.40;;;;;;5055309;28;20417;-81
2022/06/21 07:10:45;;;;;;;17.80;16.90;;;19.60;23.40;;;;;;5054809;28;20415;-80
2022/06/21 07:13:11;;;;;;;16.73;16.03;;;19.70;23.60;;;;;;5054475;28;20520;-81
2022/06/21 07:15:41;;;;;;;17.00;16.30;;;19.70;23.50;;;;;;5054506;28;20917;-80
2022/06/21 07:18:14;;;;;;;17.10;16.20;;;19.80;23.50;;;;;;5054555;28;20537;-80
2022/06/21 07:20:43;;;;;;;17.70;16.83;;;19.80;23.40;;;;;;5053955;28;20467;-80
2022/06/21 07:26:44;;;;;;;17.10;16.10;;;19.90;22.70;;;;;;5072413;28;20400;-82
2022/06/21 07:29:45;;;;;;;17.27;16.30;;;20.00;24.10;;;;;;5054356;28;20417;-82
2022/06/21 07:44:11;;;;;;;16.37;15.63;;;20.10;23.60;;;;;;5151137;27;20352;-76
2022/06/21 07:46:47;;;;;;;16.80;16.00;;;20.10;23.10;;;;;;5132896;27;20757;-76
2022/06/21 07:49:29;;;;;;;16.73;16.00;;;20.30;23.00;;;;;;5132982;27;20421;-76
2022/06/21 07:52:01;;;;;;;16.50;15.90;;;20.20;23.20;;;;;;5132472;27;20413;-76
2022/06/21 07:54:34;;;;;;;16.50;15.90;;;20.20;22.70;;;;;;5150935;27;20406;-76
2022/06/21 08:07:07;;;;;;;16.47;15.87;;;20.50;22.00;;;;;;5151311;27;20397;-77
2022/06/21 08:09:48;;;;;;;17.27;16.50;;;20.70;22.20;;;;;;5132269;27;20414;-77
2022/06/21 08:12:15;;;;;;;17.60;16.90;;;20.70;20.80;;;;;;5132098;27;20415;-77
2022/06/21 08:14:41;;;;;;;16.97;16.27;;;20.70;21.90;;;;;;5127408;27;21101;-77
2022/06/21 08:17:14;;;;;;;16.10;15.50;;;20.80;20.60;;;;;;5128464;27;20429;-76
2022/06/21 08:19:42;;;;;;;16.90;16.20;;;20.80;20.70;;;;;;5128575;27;20304;-77
2022/06/21 08:22:21;;;;;;;17.20;16.50;;;20.80;21.40;;;;;;5111336;28;20455;-77
2022/06/21 08:25:02;;;;;;;17.83;16.93;;;20.90;21.00;;;;;;5128535;27;20402;-76
2022/06/21 08:27:53;;;;;;;18.13;17.33;;;20.80;21.00;;;;;;5129110;27;20559;-77
2022/06/21 08:37:17;;;;;;;18.20;16.80;;;20.90;20.90;;;;;;5130372;27;20469;-76
2022/06/21 08:39:59;;;;;;;18.00;17.10;;;21.00;21.70;;;;;;5129237;27;20446;-76
2022/06/21 08:42:56;;;;;;;19.00;18.10;;;20.90;21.00;;;;;;5130137;27;20474;-76
2022/06/21 08:45:54;;;;;;;18.57;17.50;;;21.00;21.20;;;;;;5128028;27;20997;-76
2022/06/21 08:48:58;;;;;;;17.30;16.60;;;21.10;21.40;;;;;;5127763;27;20411;-77
2022/06/21 08:51:48;;;;;;;16.90;16.20;;;21.00;22.20;;;;;;5127671;27;20407;-76
2022/06/21 08:54:29;;;;;;;17.13;16.50;;;21.00;22.80;;;;;;5102926;28;20464;-76
2022/06/21 08:56:57;;;;;;;17.20;16.40;;;20.90;22.30;;;;;;5109077;27;20458;-76
2022/06/21 08:59:52;;;;;;;17.30;16.67;;;20.80;23.20;;;;;;5117443;27;20480;-76
2022/06/21 09:02:44;;;;;;;18.20;17.50;;;20.80;23.40;;;;;;5117467;27;20537;-76
2022/06/21 09:05:40;;;;;;;18.77;17.83;;;20.80;24.20;;;;;;5117345;27;20520;-76
2022/06/21 09:08:28;;;;;;;18.20;17.20;;;20.70;24.50;;;;;;5117437;27;20933;-76
2022/06/21 09:11:24;;;;;;;18.97;17.93;;;20.70;24.60;;;;;;5117208;27;20828;-75
2022/06/21 09:13:53;;;;;;;21.57;20.47;;;20.80;25.30;;;;;;5117323;27;20406;-76
2022/06/21 09:16:50;;;;;;;19.90;18.87;;;21.00;24.10;;;;;;5117298;27;20407;-76
2022/06/21 09:19:37;;;;;;;19.45;18.25;;;21.40;22.60;;;;;;5115985;27;20409;-75
2022/06/21 09:22:37;;;;;;;20.13;18.93;;;21.50;21.50;;;;;;5117136;27;20569;-75
2022/06/21 09:25:32;;;;;;;18.40;17.27;;;21.50;21.30;;;;;;5098970;27;20410;-76
2022/06/21 09:28:20;;;;;;;22.10;20.40;;;21.40;22.30;;;;;;5116994;27;20411;-76
2022/06/21 09:30:58;;;;;;;17.93;17.13;;;21.60;21.80;;;;;;5116884;27;20411;-76
2022/06/21 09:33:37;;;;;;;19.00;17.90;;;21.50;21.90;;;;;;5116867;27;20411;-76
2022/06/21 09:36:29;;;;;;;19.37;17.80;;;21.60;21.80;;;;;;5117608;27;20414;-76
2022/06/21 09:39:31;;;;;;;18.20;17.30;;;21.70;22.50;;;;;;5116886;27;20422;-76
2022/06/21 09:42:26;;;;;;;18.07;17.27;;;21.90;20.90;;;;;;5116558;27;20458;-76
2022/06/21 09:45:19;;;;;;;18.70;17.60;;;22.10;20.70;;;;;;5116716;27;20415;-76
2022/06/21 09:48:06;;;;;;;17.37;16.77;;;22.40;20.20;;;;;;5117256;27;20459;-76
2022/06/21 09:50:52;;;;;;;17.83;16.90;;;22.40;20.70;;;;;;5117383;27;20943;-77
2022/06/21 09:53:46;;;;;;;19.00;18.03;;;22.40;22.10;;;;;;5116401;27;20526;-77
2022/06/21 09:56:39;;;;;;;17.20;16.40;;;22.50;21.20;;;;;;5116585;27;20407;-77
2022/06/21 09:59:31;;;;;;;19.17;17.63;;;22.40;21.70;;;;;;5116381;27;20797;-76
2022/06/21 10:02:09;;;;;;;17.17;16.40;;;22.70;20.40;;;;;;5116298;27;20537;-76
2022/06/21 10:04:59;;;;;;;17.90;17.00;;;22.90;19.90;;;;;;5116167;27;20406;-76
2022/06/21 10:07:30;;;;;;;17.50;16.70;;;22.90;20.30;;;;;;5115746;27;20415;-76
2022/06/21 10:10:07;;;;;;;18.77;17.67;;;22.90;21.20;;;;;;5134468;27;20414;-76
2022/06/21 10:13:16;;;;;;;18.40;17.50;;;23.10;20.80;;;;;;5115710;27;20488;-76
2022/06/21 10:29:41;;;;;;;19.27;18.27;;;23.40;20.00;;;;;;5134272;27;20390;-77
2022/06/21 10:32:16;;;;;;;18.20;17.23;;;23.50;20.00;;;;;;5115834;27;20913;-77
2022/06/21 10:34:57;;;;;;;18.10;17.33;;;23.60;19.80;;;;;;5134306;27;20459;-76
2022/06/21 10:37:23;;;;;;;18.80;17.60;;;23.60;19.80;;;;;;5115977;27;20467;-75
2022/06/21 10:40:31;;;;;;;18.50;17.60;;;23.80;19.80;;;;;;5115493;27;20411;-77
2022/06/21 10:43:14;;;;;;;18.00;17.13;;;23.90;20.70;;;;;;5098966;27;20217;-76
2022/06/21 10:46:04;;;;;;;18.20;17.40;;;24.00;19.80;;;;;;5117921;27;20411;-76
2022/06/21 10:48:54;;;;;;;17.90;17.10;;;24.10;19.90;;;;;;5133762;27;20406;-75
2022/06/21 10:51:37;;;;;;;17.83;17.03;;;24.10;19.70;;;;;;5115248;27;20446;-76
2022/06/21 10:54:30;;;;;;;18.57;17.77;;;24.40;19.90;;;;;;5115226;27;20430;-76
2022/06/21 10:57:24;;;;;;;18.10;17.40;;;24.50;20.20;;;;;;5115269;27;20924;-76
2022/06/21 11:03:16;;;;;;;19.70;18.30;;;24.60;20.30;;;;;;5133635;27;20819;-75
2022/06/21 11:06:00;;;;;;;18.70;17.80;;;24.80;20.10;;;;;;5114982;27;20886;-75
2022/06/21 11:08:51;;;;;;;19.17;18.33;;;25.10;19.80;;;;;;5114901;27;20418;-75
2022/06/21 11:11:29;;;;;;;19.73;18.50;;;25.10;19.50;;;;;;5114899;27;20777;-75
2022/06/21 11:14:16;;;;;;;17.87;17.17;;;25.30;18.70;;;;;;5114951;27;20415;-75
2022/06/21 11:17:22;;;;;;;18.30;17.50;;;25.30;19.10;;;;;;5114944;27;20732;-75
2022/06/21 11:19:58;;;;;;;19.83;18.70;;;25.10;20.30;;;;;;5114973;27;20429;-73
2022/06/21 11:22:47;;;;;;;24.67;22.30;;;25.00;20.20;;;;;;5114777;27;20457;-74
2022/06/21 11:25:44;;;;;;;17.90;17.10;;;25.30;19.70;;;;;;5114767;27;20415;-74
2022/06/21 11:28:34;;;;;;;18.60;17.63;;;25.30;18.90;;;;;;5114841;27;20786;-74
2022/06/21 11:31:06;;;;;;;18.50;17.70;;;25.30;19.80;;;;;;5114790;28;20906;-74
2022/06/21 11:34:05;;;;;;;18.50;17.70;;;25.20;20.30;;;;;;5114878;27;20467;-74
2022/06/21 11:36:40;;;;;;;19.00;18.20;;;25.20;20.40;;;;;;5114831;28;20419;-74
2022/06/21 11:39:35;;;;;;;18.57;17.87;;;25.20;20.10;;;;;;5114739;28;20406;-74
2022/06/21 11:42:10;;;;;;;18.80;17.80;;;25.20;20.60;;;;;;5114462;28;20466;-74
2022/06/21 11:45:01;;;;;;;19.50;18.20;;;25.20;20.20;;;;;;5114511;28;20414;-75
2022/06/21 11:47:29;;;;;;;19.07;18.07;;;25.30;19.70;;;;;;5114618;27;20463;-75
2022/06/21 11:50:13;;;;;;;18.40;17.60;;;25.40;21.10;;;;;;5114324;28;20568;-75
2022/06/21 11:53:13;;;;;;;18.10;17.40;;;25.50;20.20;;;;;;5114702;28;20419;-75
2022/06/21 11:55:41;;;;;;;19.50;18.70;;;26.00;20.60;;;;;;5114490;28;20418;-75
2022/06/21 11:58:22;;;;;;;29.67;28.17;;;26.00;19.80;;;;;;5114603;28;20541;-75
2022/06/21 12:01:08;;;;;;;20.50;19.33;;;26.10;19.60;;;;;;5114376;28;20820;-75
2022/06/21 12:03:56;;;;;;;19.43;18.50;;;26.20;19.60;;;;;;5114096;28;20473;-75
2022/06/21 12:06:29;;;;;;;19.93;18.67;;;26.30;19.80;;;;;;5115336;28;20419;-74
2022/06/21 12:09:21;;;;;;;20.40;19.30;;;26.20;19.20;;;;;;5114834;28;20784;-75
2022/06/21 12:19:12;;;;;;;19.60;18.70;;;25.80;20.20;;;;;;5131888;28;20401;-74
2022/06/21 12:24:12;;;;;;;20.63;19.50;;;25.50;21.20;;;;;;5030204;28;20975;-74
2022/06/21 12:26:38;;;;;;;20.17;19.27;;;25.60;21.10;;;;;;5032322;28;20499;-74
2022/06/21 12:29:13;;;;;;;20.13;19.17;;;25.70;21.20;;;;;;5032497;28;20495;-74
2022/06/21 12:31:50;;;;;;;19.93;19.03;;;25.70;22.60;;;;;;5035024;28;20406;-73
2022/06/21 12:34:19;;;;;;;20.80;19.50;;;25.80;21.50;;;;;;5035370;28;20415;-74
2022/06/21 12:37:00;;;;;;;22.93;21.80;;;25.90;21.20;;;;;;5035752;28;20415;-74
2022/06/21 12:39:41;;;;;;;20.90;19.70;;;26.10;21.00;;;;;;5035659;28;20812;-73
2022/06/21 12:42:31;;;;;;;19.70;18.80;;;26.00;20.80;;;;;;5034036;28;20577;-73
2022/06/21 12:45:24;;;;;;;21.10;20.10;;;25.90;21.00;;;;;;5035122;28;20423;-74
2022/06/21 12:47:55;;;;;;;20.20;19.30;;;25.80;21.80;;;;;;5034761;28;20419;-75
2022/06/21 12:50:33;;;;;;;20.47;19.33;;;25.70;21.70;;;;;;5034383;28;20432;-74
2022/06/21 12:53:05;;;;;;;20.20;19.40;;;25.50;21.90;;;;;;5035144;28;20471;-74
2022/06/21 12:56:08;;;;;;;19.90;19.00;;;25.40;22.40;;;;;;5034479;28;20423;-74
2022/06/21 12:58:40;;;;;;;20.57;19.47;;;25.50;22.90;;;;;;5034098;28;20422;-74
2022/06/21 13:01:17;;;;;;;20.97;20.07;;;25.60;22.90;;;;;;5034869;28;20415;-74
2022/06/21 13:04:04;;;;;;;19.77;18.97;;;25.80;22.60;;;;;;5036518;28;20414;-76
2022/06/21 13:06:55;;;;;;;19.63;18.83;;;26.10;21.40;;;;;;5033247;28;20488;-74
2022/06/21 13:13:36;;;;;;;19.70;18.70;;;26.40;21.50;;;;;;5034696;28;20469;-74
2022/06/21 13:19:42;;;;;;;20.73;19.73;;;26.80;20.20;;;;;;5035206;28;20406;-74
2022/06/21 13:22:20;;;;;;;19.40;18.50;;;27.10;21.20;;;;;;5033913;28;20444;-74
2022/06/21 13:25:09;;;;;;;22.30;21.17;;;27.20;20.50;;;;;;5033748;28;20849;-74
2022/06/21 13:28:02;;;;;;;22.60;21.30;;;27.40;20.00;;;;;;5013457;28;20441;-75
2022/06/21 13:33:59;;;;;;;19.63;18.53;;;27.30;19.50;;;;;;5033905;28;20528;-74
2022/06/21 13:37:15;;;;;;;20.20;19.10;;;27.20;21.00;;;;;;5012952;28;20412;-74
2022/06/21 13:40:03;;;;;;;19.63;18.70;;;27.30;20.20;;;;;;5013511;28;20416;-74
2022/06/21 13:43:01;;;;;;;19.80;18.90;;;27.40;21.00;;;;;;5013196;28;20482;-73
2022/06/21 13:45:36;;;;;;;21.47;20.10;;;27.20;21.00;;;;;;5013211;28;20416;-73
2022/06/21 13:48:26;;;;;;;20.07;18.93;;;27.30;19.90;;;;;;5013713;28;20427;-74
2022/06/21 13:51:30;;;;;;;21.60;20.50;;;27.30;20.30;;;;;;5014014;28;20510;-73
2022/06/21 13:53:59;;;;;;;20.53;19.37;;;27.60;20.70;;;;;;5015751;28;20601;-74
2022/06/21 13:59:48;;;;;;;21.40;20.20;;;28.00;20.10;;;;;;5015456;28;20399;-74
2022/06/21 14:02:34;;;;;;;20.77;19.67;;;28.10;18.60;;;;;;5013811;28;20512;-73
2022/06/21 14:08:33;;;;;;;21.37;20.27;;;28.40;18.20;;;;;;5013705;28;20395;-73
2022/06/21 14:11:25;;;;;;;20.70;19.70;;;28.50;18.30;;;;;;5012793;28;20420;-74
2022/06/21 14:14:27;;;;;;;20.20;19.20;;;28.60;18.30;;;;;;5014382;28;20460;-74
2022/06/21 14:17:19;;;;;;;21.47;20.37;;;28.60;18.30;;;;;;4961139;28;20446;-73
2022/06/21 14:23:25;;;;;;;20.50;19.50;;;28.60;18.30;;;;;;5015006;28;20432;-75
2022/06/21 14:26:19;;;;;;;20.67;19.57;;;28.60;18.30;;;;;;5012226;28;20511;-74
2022/06/21 14:28:47;;;;;;;20.57;19.47;;;28.40;18.60;;;;;;5012429;28;20821;-75
2022/06/21 14:31:15;;;;;;;20.80;19.90;;;28.50;18.30;;;;;;5011822;28;20971;-75
2022/06/21 14:33:48;;;;;;;21.27;20.03;;;28.60;18.30;;;;;;5012059;28;20472;-75
2022/06/21 14:36:27;;;;;;;21.63;20.57;;;28.70;18.40;;;;;;5012003;28;20412;-75
2022/06/21 14:39:17;;;;;;;19.93;19.13;;;28.70;18.10;;;;;;5012035;28;20432;-75
2022/06/21 14:41:56;;;;;;;20.17;19.30;;;28.70;18.40;;;;;;5011718;28;20412;-73
2022/06/21 14:44:21;;;;;;;21.20;19.97;;;28.60;17.90;;;;;;5012047;28;20424;-74
2022/06/21 14:47:10;;;;;;;22.13;21.03;;;28.70;18.40;;;;;;5011892;28;20416;-74
2022/06/21 14:49:44;;;;;;;21.77;20.77;;;28.80;17.60;;;;;;4981739;28;20196;-74
2022/06/21 14:52:27;;;;;;;21.10;19.80;;;28.80;17.80;;;;;;5011191;28;20479;-74
2022/06/21 14:54:56;;;;;;;21.00;19.83;;;28.80;18.00;;;;;;5011754;28;20428;-74
2022/06/21 14:57:34;;;;;;;20.13;19.20;;;28.80;17.40;;;;;;5011506;28;20421;-74
2022/06/21 15:00:24;;;;;;;75.03;44.03;;;28.70;18.90;;;;;;5011515;28;20419;-75
2022/06/21 15:03:14;;;;;;;20.37;19.37;;;28.80;18.40;;;;;;5011499;28;20427;-75
2022/06/21 15:06:00;;;;;;;20.17;19.20;;;28.80;18.40;;;;;;5011545;28;20590;-75
2022/06/21 15:08:47;;;;;;;23.80;22.50;;;28.70;18.40;;;;;;5012308;28;20511;-75
2022/06/21 15:11:53;;;;;;;22.23;21.00;;;28.70;18.70;;;;;;5012396;28;20420;-74
2022/06/21 15:14:37;;;;;;;19.97;18.80;;;28.60;19.00;;;;;;5012713;28;20780;-75
2022/06/21 15:17:23;;;;;;;20.07;19.03;;;28.50;18.70;;;;;;5011336;28;20500;-75
2022/06/21 15:20:13;;;;;;;44.83;23.80;;;28.50;18.70;;;;;;5010773;28;20412;-75
2022/06/21 15:23:07;;;;;;;20.27;19.27;;;28.40;18.20;;;;;;5011285;28;20612;-75
2022/06/21 15:26:00;;;;;;;25.38;23.75;;;28.10;19.30;;;;;;5012587;28;20406;-75
2022/06/21 15:28:25;;;;;;;20.50;19.60;;;28.10;18.90;;;;;;5013679;28;20177;-76
2022/06/21 15:30:58;;;;;;;22.03;20.77;;;28.10;19.40;;;;;;5015554;28;20849;-77
2022/06/21 15:33:39;;;;;;;20.90;19.80;;;28.10;18.90;;;;;;5013306;28;20301;-78
2022/06/21 15:36:11;;;;;;;20.50;19.40;;;28.00;18.90;;;;;;5013421;28;20995;-78
2022/06/21 15:38:58;;;;;;;20.67;19.67;;;27.90;18.90;;;;;;5013255;28;20428;-77
2022/06/21 15:41:50;;;;;;;21.13;20.13;;;27.80;19.30;;;;;;5014726;28;20497;-77
2022/06/21 15:51:38;;;;;;;21.10;20.10;;;27.80;19.60;;;;;;4991453;28;20490;-77
2022/06/21 15:54:27;;;;;;;23.40;22.30;;;27.70;19.30;;;;;;4990721;28;20460;-77
2022/06/21 15:57:17;;;;;;;21.90;20.80;;;27.70;20.00;;;;;;5008197;28;20462;-78
2022/06/21 15:59:59;;;;;;;20.70;19.70;;;27.70;19.30;;;;;;5012649;28;20775;-76
2022/06/21 16:02:40;;;;;;;19.67;18.67;;;27.60;19.60;;;;;;5020099;28;20434;-77
2022/06/21 16:05:47;;;;;;;19.63;18.53;;;27.50;19.80;;;;;;5034068;28;20419;-77
2022/06/21 16:08:21;;;;;;;19.80;18.73;;;27.40;19.80;;;;;;5036037;28;20780;-76